createdAt,value
2023-03-22T00:02:00.917Z,3.42
2023-03-22T00:04:27.971Z,3.85
2023-03-22T00:06:54.498Z,2.92
2023-03-22T00:09:21.382Z,3.10
2023-03-22T00:11:51.011Z,2.97
2023-03-22T00:14:20.969Z,2.97
2023-03-22T00:19:17.451Z,3.28
2023-03-22T00:21:44.386Z,2.97
2023-03-22T00:24:11.169Z,3.05
2023-03-22T00:26:38.012Z,2.65
2023-03-22T00:29:05.419Z,2.50
2023-03-22T00:31:32.834Z,2.70
2023-03-22T00:33:59.549Z,2.60
2023-03-22T00:36:26.109Z,2.55
2023-03-22T00:38:52.716Z,2.42
2023-03-22T00:41:20.973Z,2.20
2023-03-22T00:43:47.853Z,2.22
2023-03-22T00:46:15.228Z,2.20
2023-03-22T00:48:41.972Z,2.38
2023-03-22T00:51:09.430Z,2.40
2023-03-22T00:53:37.225Z,2.60
2023-03-22T00:58:43.947Z,2.33
2023-03-22T01:01:14.261Z,2.60
2023-03-22T01:03:41.942Z,2.45
2023-03-22T01:06:09.487Z,2.20
2023-03-22T01:08:39.222Z,2.30
2023-03-22T01:11:06.714Z,2.50
2023-03-22T01:13:33.974Z,2.35
2023-03-22T01:16:00.732Z,2.33
2023-03-22T01:18:27.823Z,2.20
2023-03-22T01:20:54.429Z,2.53
2023-03-22T01:25:47.957Z,2.58
2023-03-22T01:33:09.202Z,2.55
2023-03-22T01:35:36.684Z,2.40
2023-03-22T01:40:34.348Z,2.20
2023-03-22T01:43:02.973Z,2.17
2023-03-22T01:45:35.151Z,2.20
2023-03-22T01:48:05.264Z,2.40
2023-03-22T01:50:37.628Z,2.30
2023-03-22T01:53:06.757Z,2.25
2023-03-22T01:55:36.131Z,2.40
2023-03-22T02:00:49.239Z,2.30
2023-03-22T02:06:11.419Z,2.53
2023-03-22T02:11:17.850Z,2.53
2023-03-22T02:13:48.096Z,2.60
2023-03-22T02:16:38.621Z,2.83
2023-03-22T02:19:14.121Z,2.42
2023-03-22T02:22:00.933Z,2.60
2023-03-22T02:24:46.569Z,2.28
2023-03-22T02:27:22.542Z,2.40
